CheckWX is a tool to help pilots better visualize weather data.  It is not intended as a substitute for an official pre-flight weather briefing.

08:13:23 UTC

KPOC METAR
Brackett Field Airport
La Verne, California, USA
Current

4 hours ago

KPOC 230347Z 23006KT 10SM FEW120 16/12 A2999 RMK LAST
Observed
Apr-23 @ 03:47 UTC
Wind
  • 230° at 6 KTS
Visibility
10 SM
Flight Rules
VFR
Cloud Levels
  • Few at 12,000' AGL
Temperature
16°C / 61°F
Dewpoint
12°C / 54°F
Humidity
77%
Altimeter
29.99" Hg
Pressure
1015.62 hPa
Previous

5 hours ago

KPOC 230247Z 23006KT 10SM CLR 19/11 A2994
Observed
Apr-23 @ 02:47 UTC
Wind
  • 230° at 6 KTS
Visibility
10 SM
Flight Rules
VFR
Cloud Levels
  • Clear skies
Temperature
19°C / 66°F
Dewpoint
11°C / 52°F
Humidity
60%
Altimeter
29.94" Hg
Pressure
1013.92 hPa
Previous

6 hours ago

KPOC 230147Z 22006KT 10SM FEW120 21/11 A2993
Observed
Apr-23 @ 01:47 UTC
Wind
  • 220° at 6 KTS
Visibility
10 SM
Flight Rules
VFR
Cloud Levels
  • Few at 12,000' AGL
Temperature
21°C / 70°F
Dewpoint
11°C / 52°F
Humidity
53%
Altimeter
29.93" Hg
Pressure
1013.52 hPa